Time;durP1;ratioP1;P1;durP2;ratioP2;P2;SDS_P1;SDS_P2;PMS_P1;PMS_P2;Temp;Humidity;BMP_temperature;BMP_pressure;BME280_temperature;BME280_humidity;BME280_pressure;Samples;Min_cycle;Max_cycle;Signal;HPM_P1;HPM_P2
2022/10/04 00:01:28;;;;;;;;;;;8.30;80.80;;;6.85;100.00;96784.00;4967832;28;20043;-72
2022/10/04 00:04:08;;;;;;;12.07;6.82;;;8.30;80.60;;;6.82;100.00;96778.25;4976526;28;19967;-71
2022/10/04 00:06:33;;;;;;;10.38;6.60;;;8.30;80.70;;;6.81;100.00;96776.59;4938092;28;20104;-72
2022/10/04 00:09:03;;;;;;;16.77;6.75;;;8.20;80.90;;;6.80;100.00;96772.34;4938721;28;20531;-73
2022/10/04 00:11:33;;;;;;;9.53;6.33;;;8.20;80.90;;;6.78;100.00;96766.41;4959303;28;20736;-71
2022/10/04 00:14:04;;;;;;;11.02;6.32;;;8.20;80.90;;;6.74;100.00;96765.91;4953038;28;20281;-71
2022/10/04 00:16:33;;;;;;;13.07;6.78;;;8.30;80.80;;;6.73;100.00;96761.63;4963952;28;20107;-71
2022/10/04 00:19:13;;;;;;;9.57;6.32;;;8.20;80.80;;;6.72;100.00;96758.19;4947475;28;20632;-71
2022/10/04 00:22:11;;;;;;;8.88;6.05;;;8.30;81.10;;;6.72;100.00;96752.97;4960807;28;20047;-72
2022/10/04 00:24:37;;;;;;;12.98;6.25;;;8.30;81.20;;;6.71;100.00;96753.94;4956408;28;20028;-72
2022/10/04 00:27:23;;;;;;;10.10;6.47;;;8.20;81.10;;;6.73;100.00;96765.06;4931041;28;20121;-71
2022/10/04 00:30:01;;;;;;;7.15;5.45;;;8.20;81.00;;;6.72;100.00;96762.59;4941499;28;20042;-71
2022/10/04 00:32:28;;;;;;;11.13;6.10;;;8.20;81.10;;;6.71;100.00;96759.16;4956889;28;20062;-72
2022/10/04 00:34:54;;;;;;;14.15;6.78;;;8.20;81.20;;;6.69;100.00;96763.72;4954871;28;20035;-71
2022/10/04 00:37:21;;;;;;;10.13;6.35;;;8.20;81.30;;;6.70;100.00;96756.72;4944384;28;20066;-72
2022/10/04 00:40:10;;;;;;;11.80;6.78;;;8.10;81.30;;;6.67;100.00;96760.44;4921519;28;20049;-72
2022/10/04 00:42:55;;;;;;;12.05;6.82;;;8.10;81.20;;;6.67;100.00;96757.84;4961186;28;20099;-72
2022/10/04 00:45:38;;;;;;;10.45;6.88;;;8.20;81.20;;;6.65;100.00;96751.09;4961821;28;20031;-71
2022/10/04 00:48:07;;;;;;;11.80;7.53;;;8.10;81.10;;;6.61;100.00;96744.53;4967827;28;20042;-72
2022/10/04 00:50:37;;;;;;;11.57;7.82;;;8.10;80.90;;;6.58;100.00;96748.28;4961664;28;20134;-72
2022/10/04 00:53:13;;;;;;;14.43;7.30;;;8.10;81.00;;;6.57;100.00;96748.44;4936270;28;20133;-72
2022/10/04 00:55:53;;;;;;;15.57;7.50;;;8.10;80.90;;;6.54;100.00;96749.50;4951986;28;20114;-72
2022/10/04 00:58:24;;;;;;;9.77;6.47;;;8.00;80.90;;;6.52;100.00;96745.41;4946024;28;20137;-72
2022/10/04 01:00:50;;;;;;;10.48;7.15;;;8.00;80.70;;;6.46;100.00;96744.22;4955453;28;20043;-72
2022/10/04 01:03:27;;;;;;;10.68;6.97;;;8.00;80.90;;;6.47;100.00;96751.09;4962369;28;20406;-72
2022/10/04 01:05:55;;;;;;;8.50;6.82;;;7.90;80.90;;;6.43;100.00;96736.66;4930763;28;20035;-73
2022/10/04 01:08:34;;;;;;;10.93;7.07;;;7.90;80.90;;;6.39;100.00;96736.16;4940974;28;20036;-72
2022/10/04 01:11:26;;;;;;;14.52;6.90;;;7.90;81.00;;;6.36;100.00;96730.41;4963021;28;20426;-72
2022/10/04 01:14:03;;;;;;;11.70;6.70;;;7.80;81.00;;;6.35;100.00;96731.38;4962285;28;20031;-72
2022/10/04 01:16:32;;;;;;;10.30;6.22;;;7.90;81.00;;;6.31;100.00;96727.38;4961222;28;20528;-73
2022/10/04 01:19:25;;;;;;;10.07;6.18;;;7.90;81.00;;;6.31;100.00;96727.38;4978524;28;20035;-72
2022/10/04 01:22:06;;;;;;;11.75;6.20;;;7.80;80.70;;;6.27;100.00;96731.25;4986735;28;20035;-73
2022/10/04 01:24:36;;;;;;;15.40;6.07;;;7.70;80.50;;;6.23;100.00;96727.31;4995998;28;20070;-73
2022/10/04 01:27:02;;;;;;;8.43;5.43;;;7.70;80.60;;;6.20;100.00;96715.38;4978667;28;20080;-72
2022/10/04 01:29:28;;;;;;;10.95;5.70;;;7.70;80.60;;;6.17;100.00;96723.50;4963024;28;20117;-73
2022/10/04 01:31:56;;;;;;;9.10;5.15;;;7.60;80.40;;;6.14;100.00;96729.84;4946620;28;20060;-72
2022/10/04 01:34:27;;;;;;;9.35;5.35;;;7.60;80.60;;;6.11;100.00;96726.66;4918999;28;20038;-73
2022/10/04 01:36:56;;;;;;;27.35;18.20;;;7.60;80.70;;;6.06;100.00;96723.69;4943114;28;20027;-72
2022/10/04 01:39:23;;;;;;;26.83;17.50;;;7.60;81.30;;;6.04;100.00;96717.78;4927594;28;20161;-72
2022/10/04 01:42:08;;;;;;;11.15;7.60;;;7.60;81.40;;;6.01;100.00;96716.28;4946173;28;20039;-72
2022/10/04 01:45:04;;;;;;;7.00;4.75;;;7.60;81.00;;;5.99;100.00;96710.38;4933857;28;20027;-73
2022/10/04 01:47:57;;;;;;;6.75;4.10;;;7.60;80.80;;;5.97;100.00;96708.91;4963940;28;20459;-71
2022/10/04 01:50:38;;;;;;;7.15;4.32;;;7.50;80.60;;;5.96;100.00;96702.84;4963834;28;20379;-71
2022/10/04 01:53:26;;;;;;;8.18;4.00;;;7.50;80.60;;;5.93;100.00;96697.09;4960843;28;20077;-72
2022/10/04 01:56:29;;;;;;;4.88;3.50;;;7.50;80.40;;;5.89;100.00;96690.50;4964099;28;20027;-71
2022/10/04 01:59:05;;;;;;;6.38;4.15;;;7.40;80.40;;;5.86;100.00;96686.38;4961249;28;20053;-70
2022/10/04 02:01:55;;;;;;;6.50;3.88;;;7.40;80.30;;;5.84;100.00;96688.28;4958869;28;20057;-71
2022/10/04 02:04:29;;;;;;;6.32;3.65;;;7.40;80.10;;;5.80;100.00;96681.72;4965891;28;20383;-71
2022/10/04 02:06:56;;;;;;;6.07;3.95;;;7.30;80.30;;;5.78;100.00;96689.72;4944250;28;20122;-71
2022/10/04 02:09:25;;;;;;;7.13;4.00;;;7.30;80.40;;;5.74;100.00;96682.31;4973193;28;20138;-72
2022/10/04 02:11:51;;;;;;;5.35;4.07;;;7.30;80.40;;;5.71;100.00;96691.25;4948644;28;20038;-72
2022/10/04 02:14:23;;;;;;;5.35;3.85;;;7.20;80.30;;;5.71;100.00;96693.03;4949545;28;20521;-72
2022/10/04 02:16:51;;;;;;;4.55;3.40;;;7.20;79.90;;;5.68;100.00;96688.13;4945622;28;20089;-72
2022/10/04 02:19:16;;;;;;;7.60;4.10;;;7.20;79.70;;;5.68;100.00;96690.72;4961062;28;20058;-73
2022/10/04 02:21:42;;;;;;;10.07;3.95;;;7.20;79.90;;;5.59;100.00;96674.13;4963652;28;20039;-71
2022/10/04 02:24:09;;;;;;;6.47;3.60;;;7.10;79.70;;;5.59;100.00;96675.91;4958239;28;20085;-73
2022/10/04 02:26:34;;;;;;;5.45;3.83;;;7.10;79.80;;;5.58;100.00;96682.09;4948967;28;20044;-73
2022/10/04 02:29:00;;;;;;;4.88;3.53;;;7.10;80.20;;;5.54;100.00;96674.56;4945798;28;20061;-71
2022/10/04 02:34:10;;;;;;;4.50;3.13;;;7.10;80.30;;;5.49;100.00;96689.84;4961353;28;20050;-72
2022/10/04 02:36:36;;;;;;;5.13;3.40;;;7.10;80.20;;;5.48;100.00;96698.63;4960539;28;20035;-72
2022/10/04 02:39:04;;;;;;;7.80;5.85;;;7.00;80.20;;;5.44;100.00;96696.44;4944405;28;20030;-71
2022/10/04 02:41:32;;;;;;;26.75;16.60;;;7.00;80.60;;;5.44;100.00;96686.84;4973387;28;20046;-71
2022/10/04 02:44:14;;;;;;;60.03;39.47;;;7.00;80.60;;;5.41;100.00;96676.66;4961201;28;20039;-74
2022/10/04 02:46:51;;;;;;;16.30;11.38;;;6.90;80.70;;;5.40;100.00;96689.84;4962969;28;20030;-71
2022/10/04 02:49:36;;;;;;;6.72;4.65;;;6.90;80.70;;;5.38;100.00;96689.16;4949476;28;20498;-75
2022/10/04 02:52:37;;;;;;;7.70;3.60;;;6.90;80.50;;;5.33;100.00;96683.56;4966658;28;20038;-69
2022/10/04 02:55:21;;;;;;;6.72;3.70;;;6.90;80.50;;;5.31;100.00;96691.53;4969487;28;20058;-71
2022/10/04 02:57:48;;;;;;;5.50;3.60;;;6.80;80.40;;;5.27;100.00;96690.19;5027155;28;20033;-72
2022/10/04 03:00:18;;;;;;;6.15;3.92;;;6.80;80.40;;;5.22;100.00;96682.78;4985774;28;20031;-72
2022/10/04 03:03:24;;;;;;;5.93;3.63;;;6.80;80.40;;;5.23;100.00;96684.44;5018426;28;20593;-72
2022/10/04 03:06:14;;;;;;;14.40;4.22;;;6.80;80.50;;;5.22;100.00;96687.19;4970516;28;20031;-72
2022/10/04 03:08:42;;;;;;;5.30;3.53;;;6.80;80.60;;;5.21;100.00;96688.13;5013517;28;20082;-72
2022/10/04 03:11:10;;;;;;;9.40;5.05;;;6.80;80.60;;;5.21;100.00;96690.75;5006099;28;20065;-72
2022/10/04 03:13:39;;;;;;;14.65;10.52;;;6.80;81.20;;;5.23;100.00;96678.38;4982416;28;20029;-72
2022/10/04 03:16:05;;;;;;;21.67;14.23;;;6.90;81.90;;;5.24;100.00;96669.59;5040706;28;20031;-72
2022/10/04 03:18:30;;;;;;;21.55;14.50;;;6.90;81.80;;;5.29;100.00;96671.78;4981677;28;20089;-72
2022/10/04 03:20:57;;;;;;;11.02;6.50;;;6.90;81.60;;;5.28;100.00;96676.16;5001113;28;20071;-72
2022/10/04 03:23:22;;;;;;;7.22;4.50;;;6.90;81.00;;;5.27;100.00;96658.06;4933840;28;20034;-73
2022/10/04 03:25:57;;;;;;;7.78;4.22;;;6.90;81.00;;;5.26;100.00;96672.88;4960875;28;20110;-72
2022/10/04 03:28:23;;;;;;;17.45;5.32;;;6.90;81.00;;;5.26;100.00;96667.66;5012399;28;20047;-72
2022/10/04 03:30:49;;;;;;;11.93;5.50;;;6.90;81.10;;;5.27;100.00;96682.34;5036743;28;20383;-71
2022/10/04 03:33:18;;;;;;;14.20;8.60;;;6.90;81.30;;;5.27;100.00;96673.72;4960036;28;20517;-71
2022/10/04 03:35:44;;;;;;;24.90;13.80;;;7.00;81.70;;;5.29;100.00;96677.81;4964011;28;20034;-73
2022/10/04 03:38:11;;;;;;;21.30;14.27;;;7.00;81.80;;;5.32;100.00;96677.53;4964122;28;20047;-72
2022/10/04 03:40:37;;;;;;;31.90;19.88;;;7.00;81.80;;;5.32;100.00;96672.31;4953735;28;20029;-73
2022/10/04 03:43:03;;;;;;;46.25;31.75;;;7.00;81.60;;;5.35;100.00;96677.25;5075508;28;20033;-72
2022/10/04 03:45:29;;;;;;;13.32;8.27;;;7.10;81.40;;;5.31;100.00;96670.66;4985283;28;20422;-76
2022/10/04 03:48:03;;;;;;;6.63;4.35;;;7.00;80.90;;;5.33;100.00;96675.75;4934962;28;20148;-77
2022/10/04 03:50:33;;;;;;;6.47;4.07;;;6.90;80.80;;;5.29;100.00;96680.41;4959341;28;20046;-72
2022/10/04 03:53:26;;;;;;;5.93;4.28;;;6.90;80.60;;;5.27;100.00;96674.53;4962532;28;20791;-67
2022/10/04 03:55:51;;;;;;;4.57;3.42;;;6.90;80.50;;;5.26;100.00;96683.31;4968441;28;20057;-67
2022/10/04 03:58:17;;;;;;;4.53;2.85;;;6.90;80.30;;;5.23;100.00;96681.00;4949835;28;20507;-67
2022/10/04 04:01:15;;;;;;;5.15;3.13;;;6.90;80.30;;;5.20;100.00;96679.50;4968444;28;20105;-67
2022/10/04 04:03:55;;;;;;;8.98;3.50;;;6.80;80.20;;;5.19;100.00;96671.78;5011590;28;20032;-66
2022/10/04 04:06:20;;;;;;;6.97;3.67;;;6.80;80.20;;;5.14;100.00;96663.56;4988214;28;20046;-67
2022/10/04 04:08:50;;;;;;;7.25;4.15;;;6.70;80.20;;;5.13;100.00;96667.97;5008682;28;20082;-67
2022/10/04 04:11:23;;;;;;;7.97;4.82;;;6.70;80.50;;;5.12;100.00;96665.50;4979273;28;20560;-66
2022/10/04 04:14:01;;;;;;;13.93;6.10;;;6.70;80.40;;;5.11;100.00;96664.69;5004814;28;20027;-66
2022/10/04 04:16:27;;;;;;;10.45;6.72;;;6.70;80.50;;;5.09;100.00;96671.00;4968684;28;20042;-66
2022/10/04 04:18:54;;;;;;;11.63;5.80;;;6.70;80.60;;;5.08;100.00;96679.78;4950311;28;20070;-66
2022/10/04 04:21:22;;;;;;;14.60;6.13;;;6.70;80.80;;;5.07;100.00;96681.56;4983929;28;20035;-67
2022/10/04 04:24:04;;;;;;;12.10;6.32;;;6.70;80.80;;;5.05;100.00;96691.31;5068794;28;20165;-67
2022/10/04 04:26:44;;;;;;;13.85;6.40;;;6.70;81.30;;;5.03;100.00;96688.03;5052469;28;20054;-66
2022/10/04 04:29:21;;;;;;;12.80;6.15;;;6.70;81.50;;;5.04;100.00;96687.06;5038508;28;20035;-66
2022/10/04 04:32:07;;;;;;;13.98;6.32;;;6.70;81.50;;;5.03;100.00;96692.44;5026762;28;20024;-66
2022/10/04 04:34:44;;;;;;;13.57;6.35;;;6.70;81.30;;;5.01;100.00;96689.97;5052418;28;20123;-68
2022/10/04 04:37:09;;;;;;;14.10;6.00;;;6.60;80.90;;;4.99;100.00;96691.88;5052915;28;20075;-68
2022/10/04 04:39:43;;;;;;;13.07;6.32;;;6.60;80.80;;;4.98;100.00;96686.78;5044953;28;20120;-68
2022/10/04 04:42:20;;;;;;;12.30;6.43;;;6.60;80.80;;;4.92;100.00;96686.38;5026457;28;20743;-66
2022/10/04 04:44:47;;;;;;;20.33;12.13;;;6.60;80.90;;;4.92;100.00;96681.19;5033548;28;20119;-66
2022/10/04 04:47:56;;;;;;;22.75;13.07;;;6.60;81.30;;;4.92;100.00;96686.38;5031095;28;20040;-67
2022/10/04 04:50:24;;;;;;;16.45;8.90;;;6.60;81.50;;;4.89;100.00;96684.06;5035943;28;20599;-66
2022/10/04 04:53:16;;;;;;;16.30;8.50;;;6.50;81.20;;;4.88;100.00;96682.41;5009036;28;20060;-66
2022/10/04 04:55:48;;;;;;;15.68;7.82;;;6.60;80.90;;;4.90;100.00;96677.06;4970130;28;20097;-67
2022/10/04 04:58:23;;;;;;;16.27;7.65;;;6.50;80.90;;;4.89;100.00;96667.59;4954838;28;20043;-67
2022/10/04 05:01:24;;;;;;;16.40;7.88;;;6.50;80.90;;;4.85;100.00;96679.28;4983194;28;20120;-66
2022/10/04 05:04:26;;;;;;;18.38;8.38;;;6.40;81.00;;;4.82;100.00;96695.19;5027936;28;20191;-66
2022/10/04 05:07:05;;;;;;;;;;;6.50;81.20;;;4.78;100.00;96684.22;4972717;28;20034;-67
2022/10/04 05:09:37;;;;;;;12.02;6.90;;;6.40;81.10;;;4.74;100.00;96675.03;4986895;28;20018;-66
2022/10/04 05:12:20;;;;;;;16.02;7.57;;;6.40;81.10;;;4.72;100.00;96679.56;5029763;28;20031;-66
2022/10/04 05:14:49;;;;;;;9.80;5.90;;;6.40;81.00;;;4.69;100.00;96685.03;5055516;28;20032;-67
2022/10/04 05:17:21;;;;;;;14.02;6.70;;;6.40;81.10;;;4.70;100.00;96676.25;5055265;28;20085;-67
2022/10/04 05:19:47;;;;;;;15.38;6.50;;;6.40;81.30;;;4.72;100.00;96681.34;5043953;28;20403;-67
2022/10/04 05:22:13;;;;;;;11.55;5.97;;;6.40;81.40;;;4.73;100.00;96675.97;5045972;28;20051;-66
2022/10/04 05:24:51;;;;;;;11.13;5.75;;;6.50;81.40;;;4.74;100.00;96672.41;5055305;28;20076;-66
2022/10/04 05:27:39;;;;;;;10.00;5.85;;;6.50;81.30;;;4.74;100.00;96671.59;5071416;28;20058;-67
2022/10/04 05:30:15;;;;;;;11.13;6.60;;;6.50;81.60;;;4.78;100.00;96662.56;5060637;28;20037;-67
2022/10/04 05:32:49;;;;;;;10.77;6.28;;;6.60;81.50;;;4.80;100.00;96656.25;5015101;28;20036;-66
2022/10/04 05:35:17;;;;;;;12.00;5.80;;;6.60;81.60;;;4.82;100.00;96659.53;5015432;28;20192;-67
2022/10/04 05:38:30;;;;;;;12.75;6.15;;;6.60;81.70;;;4.87;100.00;96667.75;5071573;28;20143;-66
2022/10/04 05:41:07;;;;;;;9.13;6.00;;;6.70;82.00;;;4.95;100.00;96663.59;5074295;28;20561;-67
2022/10/04 05:43:44;;;;;;;11.88;5.45;;;6.80;82.30;;;5.02;100.00;96669.94;5029328;28;20057;-66
2022/10/04 05:46:33;;;;;;;9.02;5.30;;;6.90;82.40;;;5.09;100.00;96671.81;4950937;28;20100;-67
2022/10/04 05:49:12;;;;;;;15.88;4.85;;;7.00;82.40;;;5.19;100.00;96682.22;5055853;28;20389;-66
2022/10/04 05:51:53;;;;;;;6.68;4.70;;;7.10;82.40;;;5.29;100.00;96682.22;5072435;28;20035;-66
2022/10/04 05:54:23;;;;;;;5.53;4.05;;;7.20;82.60;;;5.37;100.00;96695.34;5071490;28;20028;-66
2022/10/04 05:57:00;;;;;;;5.18;3.33;;;7.30;82.20;;;5.43;100.00;96695.63;5023282;28;20037;-66
2022/10/04 05:59:44;;;;;;;7.18;4.15;;;7.40;82.10;;;5.50;100.00;96704.53;5048728;28;20068;-66
2022/10/04 06:03:18;;;;;;;8.82;4.15;;;7.50;81.70;;;5.60;100.00;96690.59;5072274;28;20068;-66
2022/10/04 06:06:30;;;;;;;5.97;3.42;;;7.60;81.60;;;5.74;100.00;96671.88;5050230;28;20032;-67
2022/10/04 06:09:12;;;;;;;7.53;3.78;;;7.80;82.10;;;5.88;100.00;96689.66;5021277;28;20548;-66
2022/10/04 06:12:00;;;;;;;8.35;4.30;;;8.00;82.30;;;6.03;100.00;96683.00;5011134;28;20047;-66
2022/10/04 06:14:53;;;;;;;5.88;4.28;;;8.10;82.20;;;6.18;100.00;96679.91;5051464;28;20035;-66
2022/10/04 06:17:49;;;;;;;8.50;4.63;;;8.20;81.80;;;6.25;100.00;96681.78;5031361;28;20385;-67
2022/10/04 06:20:39;;;;;;;6.25;4.45;;;8.30;81.70;;;6.36;100.00;96667.69;5071206;28;20446;-67
2022/10/04 06:23:12;;;;;;;4.53;4.03;;;8.50;81.10;;;6.44;100.00;96681.66;5070462;28;20067;-66
2022/10/04 06:25:50;;;;;;;5.80;4.18;;;8.60;80.90;;;6.54;100.00;96686.78;5071883;28;20558;-66
2022/10/04 06:28:29;;;;;;;5.65;4.07;;;8.60;81.50;;;6.61;100.00;96680.00;5020641;28;20063;-66
2022/10/04 06:31:18;;;;;;;6.18;3.90;;;8.70;81.20;;;6.72;100.00;96681.56;4937610;28;20050;-64
2022/10/04 06:34:28;;;;;;;5.57;4.00;;;8.80;81.00;;;6.86;100.00;96685.44;4969301;28;20045;-67
2022/10/04 06:37:38;;;;;;;5.28;4.00;;;9.00;80.50;;;6.93;100.00;96692.53;4981185;28;20066;-66
2022/10/04 06:40:25;;;;;;;10.52;4.65;;;9.00;80.20;;;6.99;100.00;96680.63;4956718;28;20054;-65
2022/10/04 06:43:30;;;;;;;6.07;4.32;;;9.10;80.30;;;7.14;100.00;96700.03;5008637;28;20039;-68
2022/10/04 06:46:41;;;;;;;7.32;4.60;;;9.20;80.30;;;7.21;100.00;96689.78;4941201;28;20050;-66
2022/10/04 06:49:33;;;;;;;8.63;4.47;;;9.20;80.00;;;7.29;100.00;96687.22;4949889;28;20058;-66
2022/10/04 06:52:33;;;;;;;6.70;4.53;;;9.40;79.60;;;7.32;100.00;96686.91;4949546;28;20040;-66
2022/10/04 06:55:39;;;;;;;7.18;5.07;;;9.40;78.80;;;7.40;100.00;96680.91;4939051;28;20476;-66
2022/10/04 06:58:46;;;;;;;8.57;5.40;;;9.60;78.20;;;7.54;100.00;96675.09;5026647;28;20507;-67
2022/10/04 07:01:29;;;;;;;5.88;5.20;;;9.70;78.40;;;7.65;100.00;96677.44;4981675;28;20073;-67
2022/10/04 07:04:19;;;;;;;9.85;6.30;;;9.80;77.60;;;7.77;100.00;96670.97;4968869;28;20034;-66
2022/10/04 07:10:32;;;;;;;7.05;5.00;;;10.20;77.30;;;8.06;100.00;96674.97;4969007;28;20426;-66
2022/10/04 07:13:04;;;;;;;7.18;5.13;;;10.50;77.50;;;8.20;100.00;96682.25;4999975;28;20033;-67
2022/10/04 07:15:40;;;;;;;8.18;5.30;;;10.60;77.60;;;8.34;100.00;96679.03;5028859;28;20028;-67
2022/10/04 07:18:07;;;;;;;10.90;5.72;;;10.80;77.10;;;8.47;100.00;96684.63;5053896;28;20048;-66
2022/10/04 07:20:34;;;;;;;9.15;5.00;;;10.90;76.50;;;8.63;100.00;96688.25;5053267;28;20114;-67
2022/10/04 07:23:15;;;;;;;8.50;5.03;;;11.20;75.50;;;8.84;100.00;96693.84;5069245;28;20104;-67
2022/10/04 07:25:45;;;;;;;;;;;11.50;75.00;;;9.00;100.00;96693.03;5055601;28;20077;-67
2022/10/04 07:31:12;;;;;;;9.20;5.25;;;11.80;73.80;;;9.36;100.00;96701.38;5018592;28;20121;-66
2022/10/04 07:33:47;;;;;;;8.13;5.55;;;12.10;74.10;;;9.52;100.00;96690.84;5036517;28;20040;-66
2022/10/04 07:36:20;;;;;;;8.93;6.07;;;12.30;73.00;;;9.64;100.00;96688.66;5053671;28;20037;-66
2022/10/04 07:39:00;;;;;;;6.97;5.72;;;12.40;72.20;;;9.75;100.00;96691.78;5052673;28;20029;-66
2022/10/04 07:41:36;;;;;;;9.43;6.22;;;12.30;71.70;;;9.93;100.00;96698.59;5037398;28;20426;-66
2022/10/04 07:44:11;;;;;;;10.23;6.97;;;12.50;71.00;;;10.07;100.00;96705.75;4989699;28;20399;-66
2022/10/04 07:47:26;;;;;;;12.15;7.97;;;12.70;71.60;;;10.23;100.00;96697.03;5010920;28;20561;-65
2022/10/04 07:49:53;;;;;;;8.80;5.70;;;12.80;71.00;;;10.31;100.00;96703.06;4966580;28;20031;-65
2022/10/04 07:52:27;;;;;;;10.35;6.47;;;13.00;70.50;;;10.38;100.00;96705.81;4936124;28;20031;-65
2022/10/04 07:55:05;;;;;;;8.07;5.63;;;12.90;71.40;;;10.49;100.00;96710.69;4967780;28;20038;-68
2022/10/04 07:57:39;;;;;;;8.68;5.60;;;13.10;71.60;;;10.60;100.00;96714.72;5039979;28;20149;-66
2022/10/04 08:00:16;;;;;;;9.02;5.47;;;13.10;71.70;;;10.68;100.00;96710.25;5070312;28;20029;-67
2022/10/04 08:03:09;;;;;;;8.68;5.30;;;13.60;70.60;;;10.86;100.00;96715.19;5069193;28;20044;-66
2022/10/04 08:05:48;;;;;;;9.15;5.70;;;14.10;69.50;;;11.05;100.00;96716.53;5068774;28;20056;-66
2022/10/04 08:08:38;;;;;;;6.95;4.82;;;14.70;67.70;;;11.36;100.00;96729.63;5051888;28;20400;-65
2022/10/04 08:11:42;;;;;;;11.68;4.60;;;15.50;65.90;;;11.69;100.00;96724.06;5003264;28;20407;-66
2022/10/04 08:14:23;;;;;;;9.07;5.05;;;16.20;64.20;;;12.00;100.00;96716.03;5047189;28;20032;-66
2022/10/04 08:17:16;;;;;;;7.63;5.18;;;16.70;61.80;;;12.36;100.00;96710.78;5070193;28;20040;-66
2022/10/04 08:19:46;;;;;;;7.65;4.95;;;17.20;60.90;;;12.71;100.00;96709.97;5068261;28;20567;-66
2022/10/04 08:22:58;;;;;;;5.93;4.40;;;17.60;59.20;;;13.12;100.00;96714.63;5069267;28;20036;-68
2022/10/04 08:25:47;;;;;;;;;;;17.80;58.40;;;13.42;100.00;96708.22;5034480;28;20071;-66
2022/10/04 08:31:50;;;;;;;7.68;5.43;;;18.00;56.40;;;13.89;100.00;96706.69;5056548;28;20411;-66
2022/10/04 08:34:35;;;;;;;7.75;5.25;;;18.10;55.80;;;14.18;99.80;96708.28;5068975;28;20057;-66
2022/10/04 08:37:35;;;;;;;8.55;5.55;;;18.30;56.60;;;14.43;94.67;96699.81;5069479;28;20089;-66
2022/10/04 08:40:07;;;;;;;14.77;11.68;;;18.60;54.80;;;14.65;97.14;96702.16;5018548;28;20029;-66
2022/10/04 08:42:52;;;;;;;21.27;16.30;;;18.90;55.10;;;14.87;95.95;96686.94;5027959;28;20392;-66
2022/10/04 08:45:37;;;;;;;7.57;5.55;;;19.10;54.30;;;15.11;90.81;96680.25;5056152;28;20040;-66
2022/10/04 08:48:23;;;;;;;7.70;5.00;;;19.00;53.70;;;15.36;91.73;96679.63;4996706;28;20358;-65
2022/10/04 08:51:00;;;;;;;9.20;6.07;;;19.60;52.80;;;15.66;88.55;96680.06;4949200;28;20511;-66
2022/10/04 08:53:41;;;;;;;9.40;4.95;;;20.00;51.50;;;15.86;85.70;96679.00;4965585;28;20053;-66
2022/10/04 08:56:50;;;;;;;8.52;6.45;;;19.70;51.20;;;15.91;83.79;96679.19;5027675;28;20036;-66
2022/10/04 09:00:00;;;;;;;5.75;3.90;;;19.30;52.30;;;15.92;84.81;96686.13;5055455;28;20040;-67
2022/10/04 09:03:03;;;;;;;5.72;3.30;;;19.20;52.20;;;16.02;81.54;96690.16;5074352;28;20066;-66
2022/10/04 09:05:56;;;;;;;5.30;2.90;;;19.40;50.90;;;16.14;83.15;96691.16;5026313;28;20153;-66
2022/10/04 09:09:05;;;;;;;5.28;2.95;;;19.60;51.60;;;16.34;81.06;96683.13;5059774;28;20032;-66
2022/10/04 09:11:49;;;;;;;6.20;2.72;;;20.10;50.80;;;16.44;80.84;96684.31;5068467;28;20442;-66
2022/10/04 09:14:42;;;;;;;5.05;2.67;;;20.10;49.80;;;16.66;78.20;96686.66;5069018;28;20028;-66
2022/10/04 09:17:38;;;;;;;6.28;2.60;;;20.40;48.70;;;16.97;78.08;96694.66;5068907;28;20060;-66
2022/10/04 09:20:44;;;;;;;7.78;2.95;;;21.10;48.40;;;17.28;75.75;96690.38;5000217;28;20494;-66
2022/10/04 09:23:28;;;;;;;7.47;2.67;;;21.40;46.20;;;17.55;75.70;96694.44;4947015;28;20049;-67
2022/10/04 09:26:12;;;;;;;4.90;2.30;;;21.80;45.90;;;17.77;73.88;96683.44;4948524;28;20027;-66
2022/10/04 09:29:04;;;;;;;4.95;2.47;;;22.10;45.30;;;17.95;72.79;96665.63;4947267;28;20036;-66
2022/10/04 09:32:05;;;;;;;5.65;2.50;;;22.10;45.10;;;18.24;73.04;96673.91;4949466;28;20059;-67
2022/10/04 09:34:45;;;;;;;4.97;2.05;;;22.60;44.50;;;18.47;76.46;96673.22;5006690;28;20046;-66
2022/10/04 09:37:38;;;;;;;5.97;2.37;;;23.20;43.50;;;18.70;69.63;96677.88;5054519;28;20033;-66
2022/10/04 09:40:33;;;;;;;4.55;2.22;;;23.60;42.30;;;18.83;70.25;96672.38;5072816;28;20029;-66
2022/10/04 09:43:11;;;;;;;5.38;2.35;;;23.80;41.40;;;19.09;69.23;96665.84;5072188;28;20247;-66
2022/10/04 09:46:07;;;;;;;7.20;2.35;;;24.20;40.70;;;19.41;68.60;96675.16;5032875;28;20521;-67
2022/10/04 09:49:08;;;;;;;5.65;2.47;;;24.70;39.80;;;19.69;66.21;96682.53;5063386;28;20055;-66
2022/10/04 09:51:56;;;;;;;4.20;2.25;;;25.10;39.20;;;19.93;67.95;96694.00;4976919;28;20050;-66
2022/10/04 09:54:36;;;;;;;5.18;2.28;;;25.60;39.90;;;20.07;65.97;96678.53;4961283;28;20031;-66
2022/10/04 09:57:07;;;;;;;4.65;2.38;;;25.70;37.60;;;20.32;65.46;96681.75;5024621;28;20103;-66
2022/10/04 09:59:53;;;;;;;7.55;2.13;;;26.40;36.80;;;20.61;64.67;96677.28;5070217;28;20581;-67
2022/10/04 10:02:45;;;;;;;4.72;2.40;;;26.60;37.10;;;20.85;60.91;96674.53;5071401;28;20045;-66
2022/10/04 10:05:27;;;;;;;4.50;2.50;;;26.50;35.90;;;20.92;60.63;96657.25;5070751;28;20032;-66
2022/10/04 10:08:14;;;;;;;4.97;2.30;;;26.10;36.40;;;20.91;59.85;96657.50;5054163;28;20500;-67
2022/10/04 10:14:41;;;;;;;5.18;2.38;;;25.40;38.80;;;20.93;59.89;96660.75;4951147;28;20521;-66
2022/10/04 10:17:47;;;;;;;4.93;2.42;;;25.40;38.30;;;20.98;60.00;96658.97;4964910;28;20050;-67
2022/10/04 10:20:44;;;;;;;7.47;2.65;;;25.80;38.00;;;21.22;60.11;96669.53;4961994;28;20695;-67
2022/10/04 10:23:29;;;;;;;4.95;2.65;;;26.50;37.30;;;21.45;59.89;96674.75;5021387;28;20044;-66
2022/10/04 10:26:55;;;;;;;5.75;2.83;;;27.00;36.40;;;21.78;58.64;96673.13;5042728;28;20021;-66
2022/10/04 10:29:42;;;;;;;5.32;2.50;;;27.60;35.30;;;22.06;57.05;96680.25;5048937;28;20037;-67
2022/10/04 10:32:49;;;;;;;5.90;2.78;;;28.20;34.00;;;22.43;56.60;96689.31;5070323;28;20048;-67
2022/10/04 10:35:27;;;;;;;7.88;5.63;;;29.00;33.40;;;22.72;57.46;96686.44;5060732;28;20044;-67
2022/10/04 10:38:34;;;;;;;5.03;2.25;;;29.70;32.60;;;23.14;54.81;96684.75;5004324;28;20070;-66
2022/10/04 10:41:56;;;;;;;5.10;2.28;;;30.40;31.40;;;23.59;54.30;96680.88;4964797;28;20410;-68
2022/10/04 10:44:56;;;;;;;5.20;2.38;;;31.10;30.60;;;23.90;53.68;96668.44;4965036;28;20031;-66
2022/10/04 10:47:32;;;;;;;;;;;31.10;30.70;;;23.91;51.14;96670.06;5009626;28;20096;-67
2022/10/04 10:50:57;;;;;;;5.15;2.25;;;30.30;29.60;;;23.93;51.06;96672.50;5027974;28;20375;-67
2022/10/04 10:54:16;;;;;;;7.55;2.10;;;30.10;30.20;;;24.23;49.68;96656.56;5071406;28;20036;-67
2022/10/04 10:56:59;;;;;;;4.45;1.75;;;30.60;30.30;;;24.43;50.97;96667.41;5071702;28;20032;-67
2022/10/04 10:59:48;;;;;;;11.45;8.00;;;30.60;29.50;;;24.61;47.58;96649.97;5019689;28;20107;-67
2022/10/04 11:02:45;;;;;;;4.97;2.55;;;30.50;28.90;;;24.70;45.52;96655.69;5057111;28;20040;-67
2022/10/04 11:06:02;;;;;;;4.53;1.90;;;30.30;28.60;;;24.85;47.03;96657.56;5070927;28;20814;-67
2022/10/04 11:09:11;;;;;;;3.60;1.73;;;30.50;29.70;;;25.26;46.03;96653.09;5068316;28;20222;-67
2022/10/04 11:11:47;;;;;;;3.40;1.58;;;32.30;27.70;;;25.75;48.03;96660.63;5071097;28;20028;-67
2022/10/04 11:14:22;;;;;;;5.95;1.55;;;33.50;25.70;;;26.23;44.68;96651.88;4956491;28;20104;-67
2022/10/04 11:17:06;;;;;;;5.43;1.75;;;34.70;24.20;;;26.69;42.19;96654.41;4994433;28;20059;-67
2022/10/04 11:20:15;;;;;;;5.30;2.05;;;34.50;23.70;;;27.06;41.47;96648.56;4969116;28;20104;-67
2022/10/04 11:22:50;;;;;;;4.07;1.67;;;34.90;23.80;;;27.69;40.66;96645.13;4981149;28;20050;-67
2022/10/04 11:25:43;;;;;;;5.82;1.92;;;36.50;22.20;;;28.52;38.86;96628.53;4969147;28;20034;-66
2022/10/04 11:28:19;;;;;;;4.70;2.05;;;37.60;21.40;;;29.12;38.55;96623.38;4981303;28;20042;-66
2022/10/04 11:31:25;;;;;;;5.80;1.73;;;38.10;20.70;;;29.69;36.31;96626.00;4971947;28;20502;-67
2022/10/04 11:34:28;;;;;;;6.07;2.30;;;38.60;20.30;;;29.69;37.34;96626.00;4964617;28;20494;-66
2022/10/04 11:37:33;;;;;;;4.03;1.98;;;36.90;22.10;;;29.66;37.53;96627.41;4950018;28;20057;-67
2022/10/04 11:40:08;;;;;;;4.55;1.80;;;35.90;23.60;;;29.71;38.42;96635.44;4949387;28;20032;-67